Terminal Aerodrome Forecast
Issued by NWS

Home | Current Version | Previous Version | Graphics & Text | Print | Product List | Glossary On
Versions: 1 2 3 4 5 6 7 8 9 10 11 12
000
FTUS43 KMPX 252320
TAFRNH
TAF
KRNH 252320Z 2600/2624 VRB03KT 6SM -SHRA BR BKN025 OVC035
      TEMPO 2600/2603 4SM -SHRA BR BKN025
     FM260300 04007KT 5SM -SHRA BR OVC025
     FM260500 04011G19KT 5SM -RA BR OVC015
     FM260700 04012G20KT 4SM -RA BR OVC008
     FM261600 35013G23KT P6SM VCSH OVC008=

USA.gov is the U.S. government's official web portal to all federal, state and local government web resources and services.